Time;durP1;ratioP1;P1;durP2;ratioP2;P2;SDS_P1;SDS_P2;PMS_P1;PMS_P2;Temp;Humidity;BMP_temperature;BMP_pressure;BME280_temperature;BME280_humidity;BME280_pressure;Samples;Min_cycle;Max_cycle;Signal;HPM_P1;HPM_P2
2022/10/22 00:01:05;;;;;;;16.15;4.53;;;;;;;19.18;100.00;94659.25;5079164;28;20035;-90
2022/10/22 00:03:30;;;;;;;19.10;4.80;;;;;;;19.13;100.00;94651.47;5063256;28;20028;-91
2022/10/22 00:05:56;;;;;;;14.93;4.78;;;;;;;18.99;100.00;94644.44;5079612;28;20032;-91
2022/10/22 00:08:21;;;;;;;14.68;4.55;;;;;;;19.41;100.00;94637.81;5062845;28;20052;-91
2022/10/22 00:10:47;;;;;;;15.02;4.40;;;;;;;19.34;100.00;94640.97;5062998;28;20032;-90
2022/10/22 00:13:12;;;;;;;13.57;4.18;;;;;;;19.21;100.00;94642.69;5080365;28;20033;-92
2022/10/22 00:15:38;;;;;;;12.07;4.43;;;;;;;19.34;100.00;94633.00;5062980;28;20175;-92
2022/10/22 00:18:05;;;;;;;20.25;4.95;;;;;;;19.21;100.00;94632.84;5079395;28;20055;-91
2022/10/22 00:20:31;;;;;;;28.65;5.00;;;;;;;19.30;100.00;94629.41;5063094;28;20086;-90
2022/10/22 00:22:56;;;;;;;29.27;4.43;;;;;;;19.57;100.00;94624.78;5080471;28;20025;-92
2022/10/22 00:25:22;;;;;;;12.98;4.45;;;;;;;19.39;100.00;94637.38;5062779;28;20036;-92
2022/10/22 00:27:47;;;;;;;17.63;4.60;;;;;;;19.38;100.00;94649.84;5078943;28;20031;-90
2022/10/22 00:30:12;;;;;;;20.35;4.03;;;;;;;19.61;100.00;94658.38;5078821;28;20387;-91
2022/10/22 00:32:38;;;;;;;19.95;4.53;;;;;;;19.28;100.00;94647.53;5078837;28;20025;-95
2022/10/22 00:35:04;;;;;;;16.80;4.53;;;;;;;19.47;100.00;94633.88;5062330;28;20081;-91
2022/10/22 00:37:30;;;;;;;19.63;4.72;;;;;;;19.34;100.00;94649.69;5078583;28;20032;-91
2022/10/22 00:39:55;;;;;;;13.13;4.63;;;;;;;19.40;100.00;94634.38;5079816;28;20032;-91
2022/10/22 00:42:24;;;;;;;16.08;4.38;;;;;;;19.33;100.00;94618.91;5078663;28;20028;-92
2022/10/22 00:45:03;;;;;;;17.10;4.10;;;;;;;19.80;100.00;94616.56;5078773;28;20036;-91
2022/10/22 00:47:53;;;;;;;15.98;4.47;;;;;;;19.28;100.00;94616.44;5078737;28;20032;-92
2022/10/22 00:50:33;;;;;;;18.75;4.65;;;;;;;19.60;100.00;94637.47;5062089;28;20515;-91
2022/10/22 00:53:00;;;;;;;19.35;4.13;;;;;;;19.35;100.00;94639.88;5079585;28;20327;-92
2022/10/22 00:55:27;;;;;;;22.92;4.95;;;;;;;19.69;100.00;94616.16;5078361;28;20028;-91
2022/10/22 00:57:54;;;;;;;24.55;4.53;;;;;;;19.36;100.00;94620.94;5078562;28;20032;-92
2022/10/22 01:00:19;;;;;;;15.43;4.78;;;;;;;19.11;100.00;94619.91;5061835;28;20493;-91
2022/10/22 01:02:47;;;;;;;22.70;3.92;;;;;;;19.36;100.00;94641.41;5061463;28;20277;-91
2022/10/22 01:05:12;;;;;;;23.05;5.03;;;;;;;19.20;100.00;94641.94;5077941;28;20028;-93
2022/10/22 01:07:45;;;;;;;14.75;4.28;;;;;;;19.53;100.00;94648.56;5061787;28;20487;-92
2022/10/22 01:10:43;;;;;;;18.23;3.92;;;;;;;19.17;100.00;94653.19;5061616;28;20032;-91
2022/10/22 01:13:34;;;;;;;16.92;4.13;;;;;;;19.47;100.00;94615.28;5078296;28;20031;-91
2022/10/22 01:16:22;;;;;;;21.60;4.00;;;;;;;19.55;100.00;94595.88;5051925;28;20037;-94
2022/10/22 01:18:58;;;;;;;14.50;4.25;;;;;;;19.61;100.00;94535.38;5078978;28;20033;-92
2022/10/22 01:21:25;;;;;;;15.95;4.18;;;;;;;19.57;100.00;94523.81;5061388;28;20368;-91
2022/10/22 01:23:51;;;;;;;13.70;3.58;;;;;;;19.41;100.00;94505.75;5061393;28;20028;-91
2022/10/22 01:26:41;;;;;;;16.42;4.10;;;;;;;19.30;100.00;94510.66;5078004;28;20024;-91
2022/10/22 01:29:16;;;;;;;12.73;3.70;;;;;;;19.21;100.00;94513.34;5078233;28;20056;-90
2022/10/22 01:31:45;;;;;;;25.58;4.72;;;;;;;19.33;100.00;94517.22;5078815;28;20028;-91
2022/10/22 01:34:13;;;;;;;18.33;4.03;;;;;;;19.43;100.00;94518.72;5079150;28;20028;-92
2022/10/22 01:36:39;;;;;;;15.55;3.95;;;;;;;19.32;100.00;94513.75;5061073;28;20028;-91
2022/10/22 01:39:06;;;;;;;15.95;4.07;;;;;;;19.23;100.00;94504.28;5061094;28;20467;-93
2022/10/22 01:41:33;;;;;;;15.07;4.25;;;;;;;19.20;100.00;94493.19;5060904;28;20028;-93
2022/10/22 01:43:59;;;;;;;15.90;4.15;;;;;;;19.26;100.00;94496.47;5077774;28;20035;-90
2022/10/22 01:46:26;;;;;;;16.10;4.28;;;;;;;19.06;100.00;94490.75;5061208;28;20024;-92
2022/10/22 01:49:16;;;;;;;11.18;3.70;;;;;;;19.25;100.00;94481.63;5060944;28;20028;-91
2022/10/22 01:52:17;;;;;;;15.18;4.82;;;;;;;18.78;100.00;94493.75;5060852;28;20056;-92
2022/10/22 01:54:46;;;;;;;12.48;3.53;;;;;;;19.02;100.00;94489.81;5039732;28;20133;-93
2022/10/22 01:57:18;;;;;;;19.33;3.55;;;;;;;19.30;100.00;94500.03;5073586;28;20036;-91
2022/10/22 01:59:52;;;;;;;16.15;3.33;;;;;;;19.15;100.00;94488.06;5077243;28;20465;-92
2022/10/22 02:02:33;;;;;;;10.82;3.33;;;;;;;19.29;100.00;94519.72;5077254;28;20035;-91
2022/10/22 02:05:13;;;;;;;18.27;3.40;;;;;;;19.41;100.00;94511.06;5078291;28;20020;-90
2022/10/22 02:07:49;;;;;;;13.82;3.25;;;;;;;19.39;100.00;94510.59;5077238;28;20042;-91
2022/10/22 02:10:16;;;;;;;15.88;3.25;;;;;;;19.33;100.00;94501.28;5060427;28;20464;-92
2022/10/22 02:12:42;;;;;;;14.55;3.53;;;;;;;19.18;100.00;94495.41;5076949;28;20103;-90
2022/10/22 02:15:09;;;;;;;16.35;3.63;;;;;;;19.46;100.00;94491.50;5060503;28;20032;-92
2022/10/22 02:17:36;;;;;;;22.92;3.53;;;;;;;19.78;100.00;94491.94;5076734;28;20055;-92
2022/10/22 02:20:09;;;;;;;16.48;3.42;;;;;;;19.43;100.00;94502.78;5060647;28;20032;-93
2022/10/22 02:22:35;;;;;;;21.10;3.92;;;;;;;19.69;100.00;94515.16;5077072;28;20492;-93
2022/10/22 02:25:02;;;;;;;19.88;4.45;;;;;;;19.27;100.00;94529.88;5076713;28;20020;-90
2022/10/22 02:27:40;;;;;;;14.98;3.42;;;;;;;19.44;100.00;94544.19;5060166;28;20024;-91
2022/10/22 02:30:15;;;;;;;20.17;3.42;;;;;;;19.62;100.00;94536.94;5060257;28;20187;-92
2022/10/22 02:32:47;;;;;;;20.73;3.42;;;;;;;19.34;100.00;94542.69;5060512;28;20115;-92
2022/10/22 02:35:16;;;;;;;17.40;3.43;;;;;;;19.39;100.00;94550.47;5077726;28;20035;-92
2022/10/22 02:37:42;;;;;;;11.20;3.70;;;;;;;19.41;100.00;94534.97;5076501;28;20105;-92
2022/10/22 02:40:08;;;;;;;12.93;2.90;;;;;;;19.46;100.00;94539.34;5060257;28;20028;-93
2022/10/22 02:42:34;;;;;;;17.92;3.53;;;;;;;19.60;100.00;94539.91;5059840;28;20107;-93
2022/10/22 02:44:59;;;;;;;21.05;3.75;;;;;;;19.59;100.00;94543.66;5059840;28;20033;-93
2022/10/22 02:47:27;;;;;;;17.15;3.35;;;;;;;19.59;100.00;94514.41;5073736;28;20500;-91
2022/10/22 02:49:53;;;;;;;16.92;3.95;;;;;;;19.42;100.00;94519.81;5067204;28;20036;-91
2022/10/22 02:52:18;;;;;;;17.73;3.30;;;;;;;19.80;100.00;94544.81;5076099;28;20036;-94
2022/10/22 02:54:44;;;;;;;24.88;3.53;;;;;;;19.71;100.00;94542.19;5059853;28;20024;-92
2022/10/22 02:57:09;;;;;;;22.05;3.88;;;;;;;19.77;100.00;94554.19;5076175;28;20028;-94
2022/10/22 02:59:34;;;;;;;14.82;3.13;;;;;;;19.62;100.00;94535.03;5060093;28;20156;-92
2022/10/22 03:02:00;;;;;;;12.40;3.00;;;;;;;19.76;100.00;94528.72;5059543;28;20040;-91
2022/10/22 03:04:25;;;;;;;13.63;3.97;;;;;;;19.69;100.00;94515.16;5076284;28;20115;-95
2022/10/22 03:06:51;;;;;;;19.48;4.03;;;;;;;19.86;100.00;94507.06;5075986;28;20028;-93
2022/10/22 03:09:16;;;;;;;13.30;3.67;;;;;;;19.73;100.00;94519.53;5076033;28;20024;-93
2022/10/22 03:11:42;;;;;;;17.17;3.28;;;;;;;19.83;100.00;94515.69;5075940;28;20025;-95
2022/10/22 03:14:10;;;;;;;15.32;3.35;;;;;;;19.40;100.00;94512.16;5059293;28;20028;-93
2022/10/22 03:16:35;;;;;;;19.58;3.28;;;;;;;19.46;100.00;94494.97;5075874;28;20032;-92
2022/10/22 03:19:01;;;;;;;21.05;3.63;;;;;;;19.56;100.00;94508.97;5059342;28;20035;-92
2022/10/22 03:21:29;;;;;;;25.23;3.78;;;;;;;19.47;100.00;94522.28;5059109;28;20027;-92
2022/10/22 03:23:55;;;;;;;13.50;3.13;;;;;;;19.42;100.00;94514.50;5059384;28;20029;-92
2022/10/22 03:26:20;;;;;;;11.27;2.63;;;;;;;19.58;100.00;94514.72;5075288;28;20346;-92
2022/10/22 03:28:47;;;;;;;15.50;3.30;;;;;;;19.37;100.00;94504.84;5059526;28;20028;-92
2022/10/22 03:31:13;;;;;;;17.05;3.47;;;;;;;19.49;100.00;94496.19;5075626;28;20161;-93
2022/10/22 03:33:38;;;;;;;11.55;2.83;;;;;;;19.33;100.00;94480.78;5075604;28;20119;-92
2022/10/22 03:36:05;;;;;;;19.33;4.10;;;;;;;19.55;100.00;94480.84;5059117;28;20032;-93
2022/10/22 03:38:31;;;;;;;26.88;3.10;;;;;;;19.53;100.00;94491.81;5075468;28;20093;-93
2022/10/22 03:40:56;;;;;;;13.15;3.08;;;;;;;19.61;100.00;94490.97;5058856;28;20032;-89
2022/10/22 03:43:22;;;;;;;21.65;4.47;;;;;;;19.60;100.00;94492.06;5059327;28;20029;-92
2022/10/22 03:45:47;;;;;;;12.43;2.88;;;;;;;19.65;100.00;94530.97;5059001;28;20028;-91
2022/10/22 03:48:13;;;;;;;14.05;3.95;;;;;;;19.49;100.00;94507.59;5058872;28;20029;-93
2022/10/22 03:50:40;;;;;;;22.35;3.65;;;;;;;19.39;100.00;94491.25;5075415;28;20039;-93
2022/10/22 03:53:07;;;;;;;22.75;4.10;;;;;;;19.67;100.00;94485.47;5059216;28;20344;-92
2022/10/22 03:55:32;;;;;;;18.30;3.83;;;;;;;19.35;100.00;94502.50;5059153;28;20028;-92
2022/10/22 03:58:03;;;;;;;15.90;3.40;;;;;;;19.63;100.00;94496.72;5059179;28;20337;-93
2022/10/22 04:00:28;;;;;;;19.77;4.00;;;;;;;19.64;100.00;94511.56;5059123;28;20036;-90
2022/10/22 04:02:53;;;;;;;19.98;4.18;;;;;;;19.52;100.00;94508.84;5075297;28;20430;-93
2022/10/22 04:05:19;;;;;;;23.63;4.10;;;;;;;19.59;100.00;94506.44;5075374;28;20066;-92
2022/10/22 04:07:44;;;;;;;27.75;5.32;;;;;;;19.78;100.00;94508.69;5058749;28;20029;-93
2022/10/22 04:10:10;;;;;;;17.85;4.10;;;;;;;19.69;100.00;94504.53;5075366;28;20034;-93
2022/10/22 04:12:35;;;;;;;18.77;3.65;;;;;;;19.56;100.00;94501.78;5059076;28;20036;-91
2022/10/22 04:15:01;;;;;;;18.85;3.72;;;;;;;19.40;100.00;94504.19;5058701;28;20349;-92
2022/10/22 04:17:32;;;;;;;20.88;3.63;;;;;;;19.78;100.00;94521.19;5058609;28;20131;-91
2022/10/22 04:19:58;;;;;;;19.10;3.78;;;;;;;19.66;100.00;94529.09;5058768;28;20052;-91
2022/10/22 04:22:23;;;;;;;14.65;3.63;;;;;;;20.01;100.00;94512.94;5075267;28;20056;-93
2022/10/22 04:24:51;;;;;;;21.08;3.40;;;;;;;19.82;100.00;94508.84;5058597;28;20034;-93
2022/10/22 04:27:16;;;;;;;18.42;3.75;;;;;;;20.08;100.00;94518.53;5058958;28;20078;-91
2022/10/22 04:29:42;;;;;;;16.92;3.70;;;;;;;19.97;100.00;94512.06;5075467;28;20021;-92
2022/10/22 04:32:07;;;;;;;23.77;4.10;;;;;;;19.88;100.00;94515.50;5058399;28;20031;-92
2022/10/22 04:34:32;;;;;;;12.82;3.63;;;;;;;19.63;100.00;94499.38;5058496;28;20383;-94
2022/10/22 04:36:58;;;;;;;11.52;2.95;;;;;;;19.53;100.00;94513.06;5074983;28;20451;-93
2022/10/22 04:39:23;;;;;;;12.95;3.30;;;;;;;19.69;100.00;94499.22;5077285;28;20120;-93
2022/10/22 04:41:49;;;;;;;22.38;4.25;;;;;;;19.74;100.00;94496.34;5062073;28;20032;-93
2022/10/22 04:44:14;;;;;;;17.48;3.92;;;;;;;19.48;100.00;94513.22;5062498;28;20028;-91
2022/10/22 04:46:40;;;;;;;18.65;3.78;;;;;;;19.52;100.00;94513.38;5078707;28;20353;-92
2022/10/22 04:49:05;;;;;;;18.13;4.25;;;;;;;19.59;100.00;94500.38;5062094;28;20024;-90
2022/10/22 04:51:31;;;;;;;13.23;3.38;;;;;;;19.60;100.00;94517.88;5078975;28;20418;-92
2022/10/22 04:53:57;;;;;;;14.02;3.55;;;;;;;19.63;100.00;94515.31;5062005;28;20035;-93
2022/10/22 04:56:25;;;;;;;15.05;2.83;;;;;;;19.67;100.00;94522.69;5061974;28;20426;-92
2022/10/22 04:58:52;;;;;;;15.95;3.08;;;;;;;19.67;100.00;94518.13;5061817;28;20028;-92
2022/10/22 05:01:20;;;;;;;13.85;3.28;;;;;;;19.82;100.00;94514.16;5061806;28;20024;-92
2022/10/22 05:03:47;;;;;;;21.40;3.67;;;;;;;19.69;100.00;94523.13;5078410;28;20123;-93
2022/10/22 05:06:13;;;;;;;10.30;3.00;;;;;;;19.94;100.00;94531.28;5061787;28;20028;-92
2022/10/22 05:08:39;;;;;;;18.90;3.75;;;;;;;19.79;100.00;94520.09;5061783;28;20410;-93
2022/10/22 05:11:16;;;;;;;13.40;3.28;;;;;;;20.09;100.00;94522.75;5078440;28;20501;-92
2022/10/22 05:13:42;;;;;;;18.25;3.95;;;;;;;20.06;100.00;94516.19;5061578;28;20082;-93
2022/10/22 05:16:08;;;;;;;14.95;3.50;;;;;;;19.83;100.00;94539.63;5078095;28;20032;-92
2022/10/22 05:18:37;;;;;;;13.43;3.45;;;;;;;19.68;100.00;94524.25;5061483;28;20032;-92
2022/10/22 05:21:03;;;;;;;20.98;4.35;;;;;;;19.92;100.00;94516.44;5061440;28;20028;-93
2022/10/22 05:23:29;;;;;;;15.35;3.30;;;;;;;19.55;100.00;94516.16;5061437;28;20051;-92
2022/10/22 05:25:54;;;;;;;16.90;3.47;;;;;;;19.96;100.00;94513.91;5061698;28;20020;-92
2022/10/22 05:28:20;;;;;;;12.52;3.33;;;;;;;20.16;100.00;94511.59;5061594;28;20016;-92
2022/10/22 05:30:53;;;;;;;19.48;3.90;;;;;;;20.24;100.00;94504.66;5061223;28;20054;-92
2022/10/22 05:33:21;;;;;;;13.43;3.35;;;;;;;19.92;100.00;94503.16;5078021;28;20028;-94
2022/10/22 05:35:47;;;;;;;16.77;3.55;;;;;;;20.11;100.00;94504.59;5061521;28;20418;-93
2022/10/22 05:38:12;;;;;;;16.58;3.28;;;;;;;20.16;100.00;94501.72;5061045;28;20025;-92
2022/10/22 05:40:37;;;;;;;20.58;3.97;;;;;;;19.80;100.00;94496.94;5061002;28;20024;-91
2022/10/22 05:43:03;;;;;;;18.02;3.65;;;;;;;19.77;100.00;94499.16;5077411;28;20438;-93
2022/10/22 05:45:28;;;;;;;23.10;3.63;;;;;;;19.71;100.00;94486.38;5077534;28;20028;-92
2022/10/22 05:47:54;;;;;;;18.60;3.63;;;;;;;19.88;100.00;94496.13;5077766;28;20031;-93
2022/10/22 05:50:19;;;;;;;20.73;3.75;;;;;;;19.90;100.00;94502.66;5060359;28;20081;-91
2022/10/22 05:52:45;;;;;;;13.55;3.70;;;;;;;19.49;100.00;94496.97;5060932;28;20024;-93
2022/10/22 05:55:12;;;;;;;14.65;3.38;;;;;;;19.41;100.00;94497.03;5060874;28;20024;-92
2022/10/22 05:57:39;;;;;;;17.75;3.55;;;;;;;19.68;100.00;94487.03;5060719;28;20033;-93
2022/10/22 06:00:05;;;;;;;15.13;3.83;;;;;;;19.45;100.00;94503.25;5060816;28;20047;-92
2022/10/22 06:02:31;;;;;;;14.10;4.15;;;;;;;19.40;100.00;94498.13;5076937;28;20028;-91
2022/10/22 06:04:56;;;;;;;18.80;3.92;;;;;;;19.43;100.00;94497.47;5060652;28;20524;-93
2022/10/22 06:07:21;;;;;;;15.82;4.30;;;;;;;19.53;100.00;94512.25;5077068;28;20058;-94
2022/10/22 06:09:49;;;;;;;20.85;4.18;;;;;;;19.56;100.00;94517.72;5060582;28;20047;-94
2022/10/22 06:12:14;;;;;;;16.30;3.63;;;;;;;19.52;100.00;94535.41;5060801;28;20051;-92
2022/10/22 06:14:40;;;;;;;14.10;3.55;;;;;;;19.56;100.00;94517.72;5076860;28;20024;-90
2022/10/22 06:17:05;;;;;;;17.77;3.70;;;;;;;19.61;100.00;94530.06;5076870;28;20039;-91
2022/10/22 06:19:31;;;;;;;15.07;4.00;;;;;;;19.75;100.00;94535.13;5076774;28;20028;-91
2022/10/22 06:21:56;;;;;;;14.32;3.38;;;;;;;19.61;100.00;94530.81;5060212;28;20028;-91
2022/10/22 06:24:21;;;;;;;15.55;4.15;;;;;;;19.62;100.00;94536.94;5076737;28;20050;-91
2022/10/22 06:26:51;;;;;;;17.10;3.30;;;;;;;19.77;100.00;94538.25;5076650;28;20020;-91
2022/10/22 06:29:16;;;;;;;15.00;3.42;;;;;;;19.52;100.00;94532.75;5060127;28;20516;-93
2022/10/22 06:31:42;;;;;;;12.65;3.33;;;;;;;19.62;100.00;94539.59;5060053;28;20128;-92
2022/10/22 06:34:10;;;;;;;20.63;4.32;;;;;;;19.63;100.00;94539.25;5060083;28;20029;-91
2022/10/22 06:36:36;;;;;;;21.05;4.40;;;;;;;19.44;100.00;94528.25;5060065;28;20085;-92
2022/10/22 06:39:03;;;;;;;14.85;4.20;;;;;;;19.63;100.00;94518.00;5077986;28;20028;-92
2022/10/22 06:41:28;;;;;;;11.27;3.30;;;;;;;19.59;100.00;94522.41;5076318;28;20032;-93
2022/10/22 06:43:54;;;;;;;23.85;4.47;;;;;;;19.69;100.00;94523.91;5060246;28;20028;-94
2022/10/22 06:46:21;;;;;;;23.13;4.53;;;;;;;19.70;100.00;94535.31;5059836;28;20028;-91
2022/10/22 06:48:54;;;;;;;15.80;4.35;;;;;;;20.00;100.00;94549.38;5076168;28;20029;-90
2022/10/22 06:51:20;;;;;;;22.50;4.72;;;;;;;19.82;100.00;94562.00;5058420;28;20029;-90
2022/10/22 06:53:48;;;;;;;17.35;4.47;;;;;;;19.99;100.00;94553.16;5039572;28;20060;-91
2022/10/22 06:56:16;;;;;;;19.42;4.03;;;;;;;20.36;100.00;94563.22;5039784;28;20458;-90
2022/10/22 06:58:41;;;;;;;16.88;3.85;;;;;;;20.46;100.00;94572.72;5039567;28;20032;-90
2022/10/22 07:01:12;;;;;;;7.90;2.70;;;;;;;20.29;100.00;94578.94;5055647;28;20166;-90
2022/10/22 07:03:39;;;;;;;7.13;2.55;;;;;;;19.59;100.00;94586.16;5039634;28;20025;-92
2022/10/22 07:06:13;;;;;;;6.75;2.30;;;;;;;19.98;100.00;94580.09;5055953;28;20123;-92
2022/10/22 07:08:39;;;;;;;4.88;1.63;;;;;;;19.94;100.00;94579.16;5056251;28;20025;-90
2022/10/22 07:11:07;;;;;;;3.80;1.55;;;;;;;20.01;100.00;94579.44;5039403;28;20052;-92
2022/10/22 07:13:33;;;;;;;6.00;1.63;;;;;;;19.91;100.00;94570.69;5039476;28;20048;-90
2022/10/22 07:15:58;;;;;;;4.32;1.65;;;;;;;20.03;100.00;94586.00;5039376;28;20025;-91
2022/10/22 07:18:24;;;;;;;5.95;2.38;;;;;;;20.05;100.00;94583.00;5055673;28;20082;-89
2022/10/22 07:20:49;;;;;;;6.45;2.10;;;;;;;20.04;100.00;94568.16;5055779;28;20029;-92
2022/10/22 07:23:15;;;;;;;14.27;2.72;;;;;;;20.01;100.00;94561.63;5039228;28;20035;-92
2022/10/22 07:25:41;;;;;;;15.77;2.70;;;;;;;20.20;100.00;94565.69;5055818;28;20047;-92
2022/10/22 07:28:06;;;;;;;13.40;2.85;;;;;;;20.11;100.00;94570.28;5055777;28;20036;-90
2022/10/22 07:30:33;;;;;;;11.02;3.03;;;;;;;20.10;100.00;94595.34;5055218;28;20029;-90
2022/10/22 07:32:58;;;;;;;21.50;3.63;;;;;;;20.19;100.00;94588.09;5039025;28;20212;-90
2022/10/22 07:35:24;;;;;;;11.85;2.97;;;;;;;20.14;100.00;94591.72;5039418;28;20123;-90
2022/10/22 07:37:49;;;;;;;11.07;2.88;;;;;;;20.18;100.00;94594.50;5056379;28;20036;-91
2022/10/22 07:40:15;;;;;;;15.50;3.35;;;;;;;20.02;100.00;94605.72;5055414;28;20367;-90
2022/10/22 07:42:40;;;;;;;11.95;3.33;;;;;;;19.86;100.00;94620.59;5056382;28;20039;-91
2022/10/22 07:45:06;;;;;;;9.98;2.83;;;;;;;20.02;100.00;94612.91;5074571;28;20028;-92
2022/10/22 07:47:32;;;;;;;11.63;2.92;;;;;;;19.90;100.00;94616.22;5057578;28;20021;-91
2022/10/22 07:49:57;;;;;;;5.85;1.98;;;;;;;20.06;100.00;94606.63;5055257;28;20040;-92
2022/10/22 07:52:23;;;;;;;7.72;2.17;;;;;;;20.14;100.00;94607.66;5055212;28;20168;-92
2022/10/22 07:54:48;;;;;;;8.57;1.95;;;;;;;19.74;100.00;94619.44;5038898;28;20086;-93
2022/10/22 07:57:16;;;;;;;4.57;1.85;;;;;;;20.32;100.00;94615.53;5038827;28;20029;-90
2022/10/22 08:00:08;;;;;;;6.25;2.10;;;;;;;19.89;100.00;94615.44;5038836;28;20059;-93
2022/10/22 08:02:33;;;;;;;3.35;1.98;;;;;;;19.82;100.00;94609.84;5055252;28;20029;-92
2022/10/22 08:04:59;;;;;;;4.97;2.08;;;;;;;20.07;100.00;94620.69;5055375;28;20350;-92
2022/10/22 08:07:25;;;;;;;6.45;2.22;;;;;;;20.53;100.00;94614.78;5055176;28;20490;-91
2022/10/22 08:09:50;;;;;;;4.30;2.13;;;;;;;20.36;100.00;94618.34;5058835;28;20060;-90
2022/10/22 08:12:16;;;;;;;4.88;2.53;;;;;;;20.89;100.00;94627.53;5075334;28;20085;-91
2022/10/22 08:14:41;;;;;;;8.52;2.50;;;;;;;20.51;100.00;94635.59;5062660;28;20067;-91
2022/10/22 08:17:06;;;;;;;15.63;3.22;;;;;;;20.76;100.00;94620.56;5062689;28;20062;-92
2022/10/22 08:19:34;;;;;;;5.97;2.85;;;;;;;21.19;100.00;94599.97;5079214;28;20050;-91
2022/10/22 08:21:59;;;;;;;13.93;3.33;;;;;;;20.92;100.00;94572.81;5062698;28;20035;-91
2022/10/22 08:24:26;;;;;;;14.13;2.95;;;;;;;21.49;100.00;94583.81;5078914;28;20430;-91
2022/10/22 08:26:54;;;;;;;5.50;2.70;;;;;;;21.90;100.00;94613.31;5062443;28;20040;-90
2022/10/22 08:29:21;;;;;;;12.35;3.25;;;;;;;21.72;100.00;94615.41;5079198;28;20036;-90
2022/10/22 08:31:47;;;;;;;12.45;3.60;;;;;;;21.57;100.00;94627.47;5079096;28;20040;-91
2022/10/22 08:34:12;;;;;;;6.18;2.72;;;;;;;21.30;100.00;94626.97;5062346;28;20040;-92
2022/10/22 08:36:38;;;;;;;20.05;3.80;;;;;;;21.39;100.00;94619.66;5078786;28;20047;-91
2022/10/22 08:39:03;;;;;;;11.13;4.07;;;;;;;21.30;100.00;94618.97;5062025;28;20425;-90
2022/10/22 08:41:31;;;;;;;22.48;3.85;;;;;;;21.11;100.00;94641.56;5062068;28;20033;-91
2022/10/22 08:44:15;;;;;;;8.35;3.22;;;;;;;21.08;100.00;94638.78;5062074;28;20039;-92
2022/10/22 08:46:53;;;;;;;;;;;;;;;20.90;100.00;94625.63;5079256;28;20043;-92
2022/10/22 08:49:30;;;;;;;9.52;3.83;;;;;;;20.96;100.00;94626.19;5078502;28;20358;-93
2022/10/22 08:51:56;;;;;;;12.20;3.88;;;;;;;20.77;100.00;94632.75;5061994;28;20520;-91
2022/10/22 08:54:31;;;;;;;11.27;4.10;;;;;;;20.96;100.00;94627.00;5078436;28;20433;-90
2022/10/22 08:57:08;;;;;;;15.27;4.10;;;;;;;21.15;100.00;94631.03;5071770;28;20114;-91
2022/10/22 08:59:47;;;;;;;10.93;4.38;;;;;;;21.43;100.00;94617.88;5058995;28;20044;-90
2022/10/22 09:02:29;;;;;;;15.10;4.32;;;;;;;21.40;100.00;94607.13;5060751;28;20059;-91
2022/10/22 09:05:05;;;;;;;11.07;3.55;;;;;;;21.81;100.00;94632.09;5076740;28;20425;-91
2022/10/22 09:07:31;;;;;;;24.45;6.63;;;;;;;21.85;100.00;94630.31;5059017;28;20174;-90
2022/10/22 09:09:58;;;;;;;19.85;5.93;;;;;;;22.25;100.00;94623.50;5074767;28;20112;-89
2022/10/22 09:12:24;;;;;;;11.88;3.58;;;;;;;22.40;100.00;94627.38;5058138;28;20024;-90
2022/10/22 09:15:13;;;;;;;17.65;4.22;;;;;;;22.23;100.00;94635.63;5087816;28;20074;-90
2022/10/22 09:17:54;;;;;;;12.48;3.78;;;;;;;22.57;100.00;94641.63;5078693;28;20055;-90
2022/10/22 09:20:25;;;;;;;14.77;3.60;;;;;;;23.14;100.00;94631.72;5074899;28;20036;-91
2022/10/22 09:23:14;;;;;;;17.17;3.90;;;;;;;23.25;100.00;94640.06;5079153;28;20036;-90
2022/10/22 09:25:43;;;;;;;12.25;3.83;;;;;;;23.40;100.00;94643.13;5065829;28;20067;-91
2022/10/22 09:28:09;;;;;;;12.63;3.60;;;;;;;23.58;100.00;94630.97;5041251;28;20346;-90
2022/10/22 09:30:39;;;;;;;9.25;3.47;;;;;;;23.11;100.00;94634.31;5057307;28;20025;-90
2022/10/22 09:33:13;;;;;;;15.27;3.83;;;;;;;22.50;100.00;94636.06;5057858;28;20071;-91
2022/10/22 09:35:53;;;;;;;14.32;4.00;;;;;;;22.77;100.00;94647.13;5076615;28;20123;-91
2022/10/22 09:38:22;;;;;;;11.25;3.47;;;;;;;22.98;100.00;94645.06;5078775;28;20478;-90
2022/10/22 09:40:49;;;;;;;14.10;3.67;;;;;;;22.49;100.00;94654.00;5060645;28;20028;-90
2022/10/22 09:43:21;;;;;;;15.63;3.55;;;;;;;22.33;100.00;94650.44;5061063;28;20487;-91
2022/10/22 09:45:47;;;;;;;13.73;3.28;;;;;;;22.63;100.00;94656.28;5077370;28;20034;-92
2022/10/22 09:48:33;;;;;;;12.55;3.58;;;;;;;22.63;100.00;94669.63;5077305;28;20025;-90
2022/10/22 09:51:21;;;;;;;13.52;3.80;;;;;;;22.98;100.00;94660.31;5077065;28;20038;-91
2022/10/22 09:54:12;;;;;;;9.93;3.70;;;;;;;22.80;100.00;94657.13;5077440;28;20345;-91
2022/10/22 09:56:42;;;;;;;12.50;3.17;;;;;;;23.53;100.00;94657.97;5060808;28;20115;-92
2022/10/22 09:59:17;;;;;;;9.60;3.40;;;;;;;23.01;100.00;94663.06;5077114;28;20067;-91
2022/10/22 10:01:43;;;;;;;17.02;3.78;;;;;;;22.92;100.00;94675.78;5077073;28;20394;-92
2022/10/22 10:04:31;;;;;;;7.90;3.22;;;;;;;22.82;100.00;94660.25;5077246;28;20066;-90
2022/10/22 10:06:57;;;;;;;9.27;3.03;;;;;;;23.35;100.00;94665.53;5060811;28;20033;-91
2022/10/22 10:09:46;;;;;;;15.32;3.17;;;;;;;23.49;100.00;94659.75;5077251;28;20047;-92
2022/10/22 10:12:33;;;;;;;13.88;3.15;;;;;;;23.72;100.00;94673.34;5060040;28;20028;-92
2022/10/22 10:15:19;;;;;;;11.05;3.13;;;;;;;24.01;100.00;94663.31;5078096;28;20032;-88
2022/10/22 10:18:11;;;;;;;9.75;2.72;;;;;;;23.80;100.00;94660.16;5077049;28;20052;-91
2022/10/22 10:20:48;;;;;;;11.18;3.17;;;;;;;23.78;100.00;94673.09;5074575;28;20047;-92
2022/10/22 10:23:23;;;;;;;12.35;3.22;;;;;;;23.90;100.00;94664.19;5077935;28;20035;-89
2022/10/22 10:26:09;;;;;;;11.35;3.40;;;;;;;24.20;93.75;94666.44;5060668;28;20055;-91
2022/10/22 10:28:37;;;;;;;12.15;2.83;;;;;;;23.64;93.73;94668.94;5076664;28;20044;-89
2022/10/22 10:31:26;;;;;;;12.48;3.30;;;;;;;24.04;97.37;94658.44;5076576;28;20028;-89
2022/10/22 10:34:22;;;;;;;13.13;3.03;;;;;;;23.72;92.73;94661.88;5077130;28;20032;-91
2022/10/22 10:37:03;;;;;;;13.77;3.45;;;;;;;23.65;93.08;94665.13;5075684;28;20034;-90
2022/10/22 10:39:55;;;;;;;19.17;2.83;;;;;;;23.87;100.00;94654.94;5076442;28;20131;-89
2022/10/22 10:42:33;;;;;;;11.70;2.75;;;;;;;23.96;91.49;94649.44;5076007;28;20393;-90
2022/10/22 10:45:32;;;;;;;10.18;2.72;;;;;;;23.24;94.56;94664.44;5073115;28;20033;-91
2022/10/22 10:48:21;;;;;;;11.15;3.00;;;;;;;23.05;100.00;94663.19;5056511;28;20028;-89
2022/10/22 10:50:56;;;;;;;13.75;2.78;;;;;;;22.62;96.94;94664.66;5056122;28;20052;-93
2022/10/22 10:54:03;;;;;;;9.05;2.80;;;;;;;22.99;98.42;94668.00;5076301;28;20024;-92
2022/10/22 10:56:38;;;;;;;13.15;3.25;;;;;;;22.96;100.00;94660.66;5066589;28;20036;-93
2022/10/22 10:59:13;;;;;;;12.52;3.17;;;;;;;22.73;100.00;94637.13;5075982;28;20036;-92
2022/10/22 11:02:03;;;;;;;12.15;2.95;;;;;;;22.30;100.00;94652.63;5076138;28;20054;-92
2022/10/22 11:04:59;;;;;;;16.58;3.00;;;;;;;22.97;100.00;94643.50;5062365;28;20083;-93
2022/10/22 11:07:29;;;;;;;16.10;3.72;;;;;;;22.97;100.00;94640.03;5057093;28;20430;-91
2022/10/22 11:10:07;;;;;;;10.30;2.95;;;;;;;22.81;100.00;94656.78;5055720;28;20028;-93
2022/10/22 11:12:37;;;;;;;11.32;2.95;;;;;;;23.23;100.00;94658.31;5040495;28;20040;-88
2022/10/22 11:15:15;;;;;;;7.60;2.83;;;;;;;23.08;100.00;94659.03;5056411;28;20029;-90
2022/10/22 11:17:47;;;;;;;7.97;2.53;;;;;;;23.14;100.00;94666.47;5055758;28;20029;-92
2022/10/22 11:20:17;;;;;;;12.60;2.40;;;;;;;23.73;99.34;94666.09;5064453;28;20028;-93
2022/10/22 11:23:23;;;;;;;11.73;2.38;;;;;;;23.82;96.90;94658.69;5069285;28;20041;-93
2022/10/22 11:25:49;;;;;;;10.10;2.47;;;;;;;23.56;97.75;94670.66;4998936;28;20159;-92
2022/10/22 11:28:24;;;;;;;13.65;3.45;;;;;;;24.19;100.00;94656.88;5045655;28;20134;-93
2022/10/22 11:30:56;;;;;;;13.73;2.60;;;;;;;24.32;92.33;94668.25;5056690;28;20033;-94
2022/10/22 11:33:25;;;;;;;9.10;2.78;;;;;;;24.80;85.35;94662.78;5055850;28;20381;-93